createdAt,value
2019-02-20T00:00:19.751Z,1012.33
2019-02-20T00:01:00.163Z,1012.33
2019-02-20T00:01:40.573Z,1012.33
2019-02-20T00:02:20.950Z,1012.36
2019-02-20T00:03:01.345Z,1012.36
2019-02-20T00:03:41.750Z,1012.33
2019-02-20T00:04:22.152Z,1012.37
2019-02-20T00:05:02.551Z,1012.33
2019-02-20T00:05:42.973Z,1012.38
2019-02-20T00:06:23.386Z,1012.34
2019-02-20T00:07:03.777Z,1012.35
2019-02-20T00:07:44.167Z,1012.35
2019-02-20T00:08:24.572Z,1012.36
2019-02-20T00:09:04.977Z,1012.35
2019-02-20T00:09:45.362Z,1012.35
2019-02-20T00:10:25.748Z,1012.36
2019-02-20T00:11:06.144Z,1012.32
2019-02-20T00:11:46.576Z,1012.31
2019-02-20T00:12:26.958Z,1012.34
2019-02-20T00:13:07.380Z,1012.33
2019-02-20T00:13:47.756Z,1012.3
2019-02-20T00:14:28.189Z,1012.3
2019-02-20T00:15:08.610Z,1012.3
2019-02-20T00:15:49.037Z,1012.32
2019-02-20T00:16:29.421Z,1012.31
2019-02-20T00:17:09.801Z,1012.33
2019-02-20T00:17:50.270Z,1012.29
2019-02-20T00:18:30.613Z,1012.35
2019-02-20T00:19:11.037Z,1012.35
2019-02-20T00:19:51.439Z,1012.34
2019-02-20T00:20:31.845Z,1012.37
2019-02-20T00:21:12.280Z,1012.34
2019-02-20T00:21:52.657Z,1012.37
2019-02-20T00:22:39.956Z,1012.34
2019-02-20T00:23:13.469Z,1012.38
2019-02-20T00:23:53.878Z,1012.33
2019-02-20T00:24:35.228Z,1012.32
2019-02-20T00:25:15.584Z,1012.34
2019-02-20T00:25:55.996Z,1012.35
2019-02-20T00:26:36.385Z,1012.34
2019-02-20T00:27:16.774Z,1012.35
2019-02-20T00:27:57.198Z,1012.36
2019-02-20T00:28:37.569Z,1012.3
2019-02-20T00:29:17.965Z,1012.34
2019-02-20T00:33:46.823Z,1012.32
2019-02-20T00:34:40.445Z,1012.33
2019-02-20T00:35:35.288Z,1012.32
2019-02-20T00:36:26.268Z,1012.3
2019-02-20T00:39:53.860Z,1012.37
2019-02-20T00:40:46.785Z,1012.34
2019-02-20T00:41:37.822Z,1012.36
2019-02-20T00:44:06.946Z,1012.33
2019-02-20T00:45:56.586Z,1012.35
2019-02-20T00:46:34.882Z,1012.37
2019-02-20T00:47:15.313Z,1012.32
2019-02-20T00:47:55.744Z,1012.3
2019-02-20T00:48:36.132Z,1012.35
2019-02-20T00:49:16.542Z,1012.31
2019-02-20T00:49:56.938Z,1012.35
2019-02-20T00:50:37.354Z,1012.34
2019-02-20T00:51:17.826Z,1012.33
2019-02-20T00:51:58.355Z,1012.36
2019-02-20T00:52:38.725Z,1012.35
2019-02-20T00:53:19.098Z,1012.33
2019-02-20T00:53:59.506Z,1012.36
2019-02-20T00:54:39.916Z,1012.34
2019-02-20T00:55:20.305Z,1012.38
2019-02-20T00:56:00.736Z,1012.39
2019-02-20T00:56:41.111Z,1012.34
2019-02-20T00:57:21.551Z,1012.39
2019-02-20T00:58:01.918Z,1012.41
2019-02-20T00:58:42.353Z,1012.4
2019-02-20T00:59:22.719Z,1012.4
2019-02-20T01:00:03.117Z,1012.39
2019-02-20T01:00:43.507Z,1012.42
2019-02-20T01:01:23.903Z,1012.41
2019-02-20T01:02:04.308Z,1012.38
2019-02-20T01:02:44.692Z,1012.37
2019-02-20T01:03:25.082Z,1012.39
2019-02-20T01:04:05.585Z,1012.39
2019-02-20T01:04:45.894Z,1012.38
2019-02-20T01:05:26.293Z,1012.38
2019-02-20T01:06:06.699Z,1012.38
2019-02-20T01:06:47.130Z,1012.37
2019-02-20T01:07:27.536Z,1012.37
2019-02-20T01:08:07.900Z,1012.38
2019-02-20T01:08:48.283Z,1012.38
2019-02-20T01:09:28.705Z,1012.42
2019-02-20T01:10:09.072Z,1012.43
2019-02-20T01:10:49.472Z,1012.4
2019-02-20T01:11:29.872Z,1012.41
2019-02-20T01:14:00.370Z,1012.4
2019-02-20T01:14:40.705Z,1012.43
2019-02-20T01:15:21.100Z,1012.4
2019-02-20T01:16:01.518Z,1012.37
2019-02-20T01:16:41.899Z,1012.36
2019-02-20T01:17:22.292Z,1012.37
2019-02-20T01:18:02.717Z,1012.4
2019-02-20T01:18:43.094Z,1012.4
2019-02-20T01:19:23.485Z,1012.37
2019-02-20T01:20:03.895Z,1012.4
2019-02-20T01:20:44.299Z,1012.39
2019-02-20T01:21:24.694Z,1012.38
2019-02-20T01:23:57.360Z,1012.35
2019-02-20T01:24:38.262Z,1012.35
2019-02-20T01:25:18.639Z,1012.35
2019-02-20T01:25:59.036Z,1012.33
2019-02-20T01:26:39.445Z,1012.33
2019-02-20T01:27:19.877Z,1012.29
2019-02-20T01:28:00.230Z,1012.33
2019-02-20T01:28:40.629Z,1012.3
2019-02-20T01:29:21.061Z,1012.29
2019-02-20T01:30:01.464Z,1012.24
2019-02-20T01:30:41.833Z,1012.24
2019-02-20T01:31:22.232Z,1012.22
2019-02-20T01:32:02.702Z,1012.23
2019-02-20T01:32:43.034Z,1012.24
2019-02-20T01:33:23.499Z,1012.24
2019-02-20T01:39:28.681Z,1012.16
2019-02-20T01:40:16.918Z,1012.17
2019-02-20T01:41:05.748Z,1012.17
2019-02-20T01:41:54.586Z,1012.2
2019-02-20T01:42:43.153Z,1012.17
2019-02-20T01:43:32.147Z,1012.2
2019-02-20T01:44:20.949Z,1012.19
2019-02-20T01:45:10.249Z,1012.2
2019-02-20T01:45:59.206Z,1012.17
2019-02-20T01:46:51.793Z,1012.21
2019-02-20T01:50:30.647Z,1012.17
2019-02-20T01:51:20.006Z,1012.19
2019-02-20T01:52:08.562Z,1012.15
2019-02-20T01:52:57.860Z,1012.21
2019-02-20T01:53:47.089Z,1012.19
2019-02-20T01:56:19.378Z,1012.16
2019-02-20T01:57:07.583Z,1012.13
2019-02-20T01:57:55.750Z,1012.16
2019-02-20T01:58:45.024Z,1012.17
2019-02-20T01:59:33.330Z,1012.15
2019-02-20T02:00:22.516Z,1012.13
2019-02-20T02:01:14.153Z,1012.13
2019-02-20T02:03:23.043Z,1012.17
2019-02-20T02:04:09.054Z,1012.18
2019-02-20T02:04:57.791Z,1012.18
2019-02-20T02:05:46.391Z,1012.19
2019-02-20T02:06:35.171Z,1012.15
2019-02-20T02:07:23.398Z,1012.17
2019-02-20T02:08:13.003Z,1012.2
2019-02-20T02:09:01.326Z,1012.19
2019-02-20T02:09:50.427Z,1012.17
2019-02-20T02:10:39.076Z,1012.14
2019-02-20T02:11:28.462Z,1012.1
2019-02-20T02:12:17.732Z,1012.14
2019-02-20T02:13:09.409Z,1012.14
2019-02-20T02:14:03.366Z,1012.11
2019-02-20T02:16:17.013Z,1012.14
2019-02-20T02:17:09.457Z,1012.12
2019-02-20T02:17:58.615Z,1012.1
2019-02-20T02:18:46.794Z,1012.11
2019-02-20T02:19:35.963Z,1012.08
2019-02-20T02:20:24.274Z,1012.1
2019-02-20T02:21:13.480Z,1012.11
2019-02-20T02:22:03.111Z,1012.11
2019-02-20T02:22:51.844Z,1012.1
2019-02-20T02:23:40.047Z,1012.05
2019-02-20T02:24:32.833Z,1012.06
2019-02-20T02:26:37.859Z,1012.04
2019-02-20T02:27:26.928Z,1012.03
2019-02-20T02:28:16.484Z,1012.06
2019-02-20T02:29:08.701Z,1012.06
2019-02-20T02:30:02.331Z,1012.07
2019-02-20T02:30:51.296Z,1012.1
2019-02-20T02:31:40.303Z,1012.04
2019-02-20T02:32:29.766Z,1012.08
2019-02-20T02:33:19.630Z,1012.09
2019-02-20T02:34:08.273Z,1012.05
2019-02-20T02:36:51.233Z,1012.06
2019-02-20T02:39:27.606Z,1012.04
2019-02-20T02:40:07.842Z,1012.08
2019-02-20T02:40:48.235Z,1012.09
2019-02-20T02:41:28.640Z,1012.09
2019-02-20T02:42:09.011Z,1012.07
2019-02-20T02:42:49.417Z,1012.03
2019-02-20T02:43:29.766Z,1012.05
2019-02-20T02:44:10.174Z,1012.04
2019-02-20T02:44:50.553Z,1012.06
2019-02-20T02:45:30.970Z,1012.01
2019-02-20T02:46:11.347Z,1012.03
2019-02-20T02:46:51.875Z,1012.01
2019-02-20T02:47:32.199Z,1011.98
2019-02-20T02:48:12.601Z,1011.99
2019-02-20T02:48:52.959Z,1012
2019-02-20T02:49:33.364Z,1011.96
2019-02-20T02:50:13.766Z,1011.97
2019-02-20T02:50:54.159Z,1011.97
2019-02-20T02:51:34.567Z,1011.97
2019-02-20T02:52:14.952Z,1011.95
2019-02-20T02:52:55.364Z,1011.96
2019-02-20T02:53:35.858Z,1011.99
2019-02-20T02:54:16.140Z,1012
2019-02-20T02:54:56.536Z,1011.99
2019-02-20T02:55:36.936Z,1011.99
2019-02-20T02:56:17.345Z,1011.99
2019-02-20T02:56:57.742Z,1011.98
2019-02-20T02:57:38.141Z,1011.98
2019-02-20T02:58:18.587Z,1011.98
2019-02-20T02:58:58.991Z,1011.96
2019-02-20T02:59:39.388Z,1011.98
2019-02-20T03:00:19.767Z,1012
2019-02-20T03:01:00.168Z,1012.02
2019-02-20T03:01:40.564Z,1012.01
2019-02-20T03:02:20.978Z,1012.03
2019-02-20T03:03:01.408Z,1012.02
2019-02-20T03:03:41.767Z,1012.06
2019-02-20T03:04:22.174Z,1012.04
2019-02-20T03:05:02.563Z,1012.07
2019-02-20T03:05:42.959Z,1012.1
2019-02-20T03:06:23.391Z,1012.03
2019-02-20T03:07:03.777Z,1012.06
2019-02-20T03:07:44.149Z,1012.05
2019-02-20T03:08:24.589Z,1012.08
2019-02-20T03:09:04.941Z,1012.11
2019-02-20T03:09:45.358Z,1012.06
2019-02-20T03:10:25.752Z,1012.14
2019-02-20T03:11:06.188Z,1012.13
2019-02-20T03:11:46.574Z,1012.15
2019-02-20T03:12:27.006Z,1012.15
2019-02-20T03:13:07.414Z,1012.19
2019-02-20T03:13:47.779Z,1012.15
2019-02-20T03:14:28.179Z,1012.15
2019-02-20T03:15:08.585Z,1012.16
2019-02-20T03:15:48.984Z,1012.16
2019-02-20T03:16:29.399Z,1012.2
2019-02-20T03:17:09.789Z,1012.2
2019-02-20T03:17:50.173Z,1012.19
2019-02-20T03:18:30.553Z,1012.21
2019-02-20T03:19:10.944Z,1012.17
2019-02-20T03:19:51.342Z,1012.19
2019-02-20T03:20:31.706Z,1012.15
2019-02-20T03:21:12.095Z,1012.2
2019-02-20T03:21:52.495Z,1012.16
2019-02-20T03:22:32.909Z,1012.17
2019-02-20T03:23:13.331Z,1012.21
2019-02-20T03:23:53.723Z,1012.19
2019-02-20T03:24:34.124Z,1012.22
2019-02-20T03:25:14.504Z,1012.18
2019-02-20T03:25:54.866Z,1012.17
2019-02-20T03:26:35.275Z,1012.17
2019-02-20T03:27:15.633Z,1012.19
2019-02-20T03:27:56.028Z,1012.2
2019-02-20T03:28:36.437Z,1012.19
2019-02-20T03:29:16.816Z,1012.19
2019-02-20T03:29:57.215Z,1012.22
2019-02-20T03:30:37.660Z,1012.23
2019-02-20T03:31:18.023Z,1012.2
2019-02-20T03:31:58.427Z,1012.22
2019-02-20T03:32:38.947Z,1012.24
2019-02-20T03:33:19.262Z,1012.23
2019-02-20T03:33:59.730Z,1012.22
2019-02-20T03:34:40.054Z,1012.17
2019-02-20T03:35:20.464Z,1012.2
2019-02-20T03:36:00.862Z,1012.23
2019-02-20T03:36:41.339Z,1012.21
2019-02-20T03:37:21.681Z,1012.17
2019-02-20T03:38:02.078Z,1012.17
2019-02-20T03:38:42.477Z,1012.16
2019-02-20T03:39:22.872Z,1012.2
2019-02-20T03:40:03.268Z,1012.15
2019-02-20T03:42:33.558Z,1012.19
2019-02-20T03:43:21.455Z,1012.2
2019-02-20T03:44:00.376Z,1012.21
2019-02-20T03:44:40.774Z,1012.21
2019-02-20T03:45:21.188Z,1012.22
2019-02-20T03:46:01.559Z,1012.26
2019-02-20T03:46:42.012Z,1012.24
2019-02-20T03:47:22.372Z,1012.21
2019-02-20T03:48:02.730Z,1012.24
2019-02-20T03:48:43.100Z,1012.24
2019-02-20T03:49:23.488Z,1012.2
2019-02-20T03:50:03.893Z,1012.2
2019-02-20T03:50:44.342Z,1012.24
2019-02-20T03:51:24.683Z,1012.25
2019-02-20T03:52:05.092Z,1012.21
2019-02-20T03:52:45.506Z,1012.19
2019-02-20T03:53:25.916Z,1012.19
2019-02-20T03:54:06.333Z,1012.21
2019-02-20T03:54:46.773Z,1012.24
2019-02-20T03:55:27.156Z,1012.23
2019-02-20T03:56:07.572Z,1012.19
2019-02-20T03:56:47.933Z,1012.23
2019-02-20T03:57:28.342Z,1012.2
2019-02-20T03:58:08.752Z,1012.21
2019-02-20T03:58:49.172Z,1012.23
2019-02-20T03:59:29.583Z,1012.23
2019-02-20T04:00:09.958Z,1012.22
2019-02-20T04:00:50.373Z,1012.21
2019-02-20T04:01:30.773Z,1012.21
2019-02-20T04:02:11.191Z,1012.2
2019-02-20T04:02:51.598Z,1012.2
2019-02-20T04:03:31.994Z,1012.15
2019-02-20T04:04:13.331Z,1012.21
2019-02-20T04:04:53.742Z,1012.19
2019-02-20T04:05:34.153Z,1012.21
2019-02-20T04:06:14.607Z,1012.21
2019-02-20T04:06:54.991Z,1012.17
2019-02-20T04:07:35.392Z,1012.21
2019-02-20T04:08:15.817Z,1012.19
2019-02-20T04:08:56.212Z,1012.21
2019-02-20T04:09:36.562Z,1012.17
2019-02-20T04:10:16.947Z,1012.19
2019-02-20T04:10:57.341Z,1012.2
2019-02-20T04:11:37.723Z,1012.2
2019-02-20T04:12:18.115Z,1012.22
2019-02-20T04:12:58.518Z,1012.24
2019-02-20T04:13:38.944Z,1012.24
2019-02-20T04:14:19.315Z,1012.23
2019-02-20T04:14:59.729Z,1012.22
2019-02-20T04:15:40.124Z,1012.22
2019-02-20T04:16:20.525Z,1012.19
2019-02-20T04:17:00.923Z,1012.22
2019-02-20T04:17:41.348Z,1012.2
2019-02-20T04:18:21.739Z,1012.22
2019-02-20T04:19:02.177Z,1012.2
2019-02-20T04:19:42.569Z,1012.21
2019-02-20T04:20:22.988Z,1012.18
2019-02-20T04:21:03.618Z,1012.23
2019-02-20T04:21:43.818Z,1012.2
2019-02-20T04:22:24.376Z,1012.23
2019-02-20T04:23:04.633Z,1012.22
2019-02-20T04:23:45.087Z,1012.24
2019-02-20T04:24:25.473Z,1012.23
2019-02-20T04:25:05.904Z,1012.24
2019-02-20T04:25:46.317Z,1012.22
2019-02-20T04:26:26.735Z,1012.26
2019-02-20T04:27:07.168Z,1012.23
2019-02-20T05:10:33.388Z,1012.24
2019-02-20T05:11:22.844Z,1012.29
2019-02-20T05:12:11.058Z,1012.3
2019-02-20T05:12:55.679Z,1012.26
2019-02-20T05:13:36.112Z,1012.26
2019-02-20T05:14:16.491Z,1012.25
2019-02-20T05:14:56.882Z,1012.26
2019-02-20T05:15:37.270Z,1012.25
2019-02-20T05:16:17.691Z,1012.29
2019-02-20T05:16:58.093Z,1012.29
2019-02-20T05:17:38.461Z,1012.28
2019-02-20T05:18:18.891Z,1012.34
2019-02-20T05:18:59.298Z,1012.28
2019-02-20T05:19:39.725Z,1012.3
2019-02-20T05:20:21.867Z,1012.31
2019-02-20T05:21:02.318Z,1012.28
2019-02-20T05:21:42.711Z,1012.29
2019-02-20T05:22:23.135Z,1012.27
2019-02-20T05:23:03.531Z,1012.27
2019-02-20T05:23:43.929Z,1012.28
2019-02-20T05:24:25.328Z,1012.26
2019-02-20T05:25:04.729Z,1012.28
2019-02-20T05:25:45.114Z,1012.24
2019-02-20T05:26:25.553Z,1012.25
2019-02-20T05:27:05.934Z,1012.28
2019-02-20T05:27:46.322Z,1012.24
2019-02-20T05:28:26.749Z,1012.25
2019-02-20T05:29:07.117Z,1012.32
2019-02-20T05:29:47.491Z,1012.24
2019-02-20T05:30:27.902Z,1012.28
2019-02-20T05:31:08.273Z,1012.26
2019-02-20T05:33:12.478Z,1012.29
2019-02-20T05:34:00.805Z,1012.31
2019-02-20T05:34:48.961Z,1012.32
2019-02-20T05:35:38.022Z,1012.31
2019-02-20T05:38:06.089Z,1012.29
2019-02-20T05:38:57.098Z,1012.27
2019-02-20T05:41:40.692Z,1012.24
2019-02-20T05:42:30.242Z,1012.23
2019-02-20T05:43:23.570Z,1012.21
2019-02-20T05:44:08.438Z,1012.19
2019-02-20T05:44:48.894Z,1012.22
2019-02-20T05:45:30.291Z,1012.18
2019-02-20T05:46:10.721Z,1012.15
2019-02-20T05:46:51.272Z,1012.16
2019-02-20T05:47:31.716Z,1012.15
2019-02-20T05:48:12.430Z,1012.16
2019-02-20T05:48:53.250Z,1012.17
2019-02-20T05:49:34.446Z,1012.15
2019-02-20T05:50:15.607Z,1012.19
2019-02-20T05:50:56.555Z,1012.19
2019-02-20T05:51:37.033Z,1012.17
2019-02-20T05:52:17.657Z,1012.17
2019-02-20T05:52:59.781Z,1012.19
2019-02-20T05:53:40.364Z,1012.19
2019-02-20T05:54:21.019Z,1012.2
2019-02-20T05:55:01.627Z,1012.22
2019-02-20T05:55:42.117Z,1012.24
2019-02-20T05:56:22.831Z,1012.22
2019-02-20T05:57:03.495Z,1012.28
2019-02-20T05:57:44.944Z,1012.23
2019-02-20T05:58:25.545Z,1012.25
2019-02-20T05:59:06.249Z,1012.26
2019-02-20T05:59:47.879Z,1012.27
2019-02-20T06:00:30.022Z,1012.31
2019-02-20T06:01:10.380Z,1012.27
2019-02-20T06:01:50.740Z,1012.26
2019-02-20T06:02:31.608Z,1012.26
2019-02-20T06:03:12.359Z,1012.27
2019-02-20T06:03:52.854Z,1012.29
2019-02-20T06:04:33.573Z,1012.33
2019-02-20T06:05:13.864Z,1012.3
2019-02-20T06:05:54.560Z,1012.32
2019-02-20T06:06:34.931Z,1012.3
2019-02-20T06:07:15.365Z,1012.35
2019-02-20T06:07:56.001Z,1012.36
2019-02-20T06:08:37.127Z,1012.35
2019-02-20T06:09:18.433Z,1012.34
2019-02-20T06:10:00.274Z,1012.36
2019-02-20T06:10:40.878Z,1012.38
2019-02-20T06:11:21.686Z,1012.41
2019-02-20T06:12:02.343Z,1012.33
2019-02-20T06:12:43.074Z,1012.34
2019-02-20T06:13:24.061Z,1012.35
2019-02-20T06:14:04.666Z,1012.33
2019-02-20T06:14:45.419Z,1012.35
2019-02-20T06:15:26.324Z,1012.34
2019-02-20T06:16:06.732Z,1012.34
2019-02-20T06:16:47.604Z,1012.34
2019-02-20T06:17:28.238Z,1012.34
2019-02-20T06:18:09.642Z,1012.35
2019-02-20T06:18:52.302Z,1012.35
2019-02-20T06:19:37.347Z,1012.37
2019-02-20T06:20:17.937Z,1012.37
2019-02-20T06:20:58.952Z,1012.37
2019-02-20T06:21:39.373Z,1012.37
2019-02-20T06:22:20.192Z,1012.37
2019-02-20T06:23:00.817Z,1012.41
2019-02-20T06:23:41.494Z,1012.42
2019-02-20T06:24:22.206Z,1012.46
2019-02-20T06:25:02.973Z,1012.5
2019-02-20T06:25:43.350Z,1012.51
2019-02-20T06:26:24.325Z,1012.51
2019-02-20T06:27:05.078Z,1012.52
2019-02-20T06:29:57.525Z,1012.48
2019-02-20T06:30:47.663Z,1012.5
2019-02-20T06:35:59.188Z,1012.53
2019-02-20T06:36:38.096Z,1012.55
2019-02-20T06:37:18.526Z,1012.6
2019-02-20T06:37:58.897Z,1012.54
2019-02-20T06:38:39.279Z,1012.61
2019-02-20T06:39:19.765Z,1012.61
2019-02-20T06:40:00.314Z,1012.66
2019-02-20T06:40:40.562Z,1012.6
2019-02-20T06:41:20.955Z,1012.64
2019-02-20T06:42:01.418Z,1012.62
2019-02-20T06:42:42.405Z,1012.63
2019-02-20T06:43:22.837Z,1012.65
2019-02-20T06:44:03.263Z,1012.66
2019-02-20T06:44:43.994Z,1012.67
2019-02-20T06:45:25.396Z,1012.64
2019-02-20T06:46:05.918Z,1012.65
2019-02-20T06:46:46.898Z,1012.68
2019-02-20T06:47:28.401Z,1012.7
2019-02-20T06:48:08.547Z,1012.71
2019-02-20T06:48:49.286Z,1012.71
2019-02-20T06:49:30.275Z,1012.73
2019-02-20T06:50:12.377Z,1012.76
2019-02-20T06:50:53.875Z,1012.74
2019-02-20T06:51:36.478Z,1012.72
2019-02-20T06:52:18.770Z,1012.78
2019-02-20T06:52:59.222Z,1012.78
2019-02-20T06:53:39.986Z,1012.76
2019-02-20T06:54:21.056Z,1012.84
2019-02-20T06:55:02.423Z,1012.82
2019-02-20T06:55:44.408Z,1012.88
2019-02-20T06:56:24.142Z,1012.85
2019-02-20T06:57:05.910Z,1012.9
2019-02-20T06:57:47.032Z,1012.87
2019-02-20T06:58:27.211Z,1012.84
2019-02-20T06:59:08.977Z,1012.82
2019-02-20T06:59:49.407Z,1012.89
2019-02-20T07:00:29.574Z,1012.87
2019-02-20T07:01:11.909Z,1012.87
2019-02-20T07:01:52.937Z,1012.9
2019-02-20T07:02:35.794Z,1012.89
2019-02-20T07:03:15.413Z,1012.9
2019-02-20T07:11:40.030Z,1012.97
2019-02-20T07:12:21.218Z,1012.98
2019-02-20T07:13:01.042Z,1012.98
2019-02-20T07:13:42.030Z,1013.01
2019-02-20T07:14:23.596Z,1013
2019-02-20T07:15:03.709Z,1013.01
2019-02-20T07:15:44.454Z,1013
2019-02-20T07:16:25.113Z,1012.99
2019-02-20T07:17:06.559Z,1012.95
2019-02-20T07:17:46.806Z,1013.01
2019-02-20T07:18:29.046Z,1013
2019-02-20T07:19:08.921Z,1013.03
2019-02-20T07:19:49.712Z,1013.02
2019-02-20T07:20:30.083Z,1013.03
2019-02-20T07:21:12.182Z,1013.01
2019-02-20T07:21:52.747Z,1013.03
2019-02-20T07:22:34.031Z,1013.06
2019-02-20T07:23:14.457Z,1013.01
2019-02-20T07:23:56.131Z,1013.04
2019-02-20T07:24:36.037Z,1013.06
2019-02-20T07:25:16.400Z,1013.06
2019-02-20T07:25:58.243Z,1013.05
2019-02-20T07:26:39.115Z,1013.04
2019-02-20T07:27:19.846Z,1013.08
2019-02-20T07:28:01.058Z,1013.08
2019-02-20T07:28:41.130Z,1013.07
2019-02-20T07:29:22.229Z,1013.06
2019-02-20T07:30:03.125Z,1013.08
2019-02-20T07:30:43.260Z,1013.1
2019-02-20T07:31:23.952Z,1013.12
2019-02-20T07:32:04.391Z,1013.13
2019-02-20T07:32:45.145Z,1013.14
2019-02-20T07:33:26.065Z,1013.16
2019-02-20T07:34:06.290Z,1013.14
2019-02-20T07:34:46.695Z,1013.23
2019-02-20T07:35:27.161Z,1013.19
2019-02-20T07:36:08.389Z,1013.21
2019-02-20T07:36:49.736Z,1013.15
2019-02-20T07:37:31.062Z,1013.2
2019-02-20T07:38:11.009Z,1013.17
2019-02-20T07:38:52.067Z,1013.16
2019-02-20T07:39:32.884Z,1013.14
2019-02-20T07:40:16.080Z,1013.11
2019-02-20T07:40:56.016Z,1013.14
2019-02-20T07:41:36.824Z,1013.16
2019-02-20T07:42:18.550Z,1013.15
2019-02-20T07:42:59.715Z,1013.17
2019-02-20T07:43:40.787Z,1013.12
2019-02-20T07:44:22.051Z,1013.14
2019-02-20T07:45:02.783Z,1013.11
2019-02-20T07:45:42.901Z,1013.14
2019-02-20T07:46:23.839Z,1013.18
2019-02-20T07:47:05.265Z,1013.14
2019-02-20T07:47:45.973Z,1013.14
2019-02-20T07:48:27.207Z,1013.17
2019-02-20T07:49:07.680Z,1013.16
2019-02-20T07:49:51.084Z,1013.2
2019-02-20T07:50:31.043Z,1013.19
2019-02-20T07:51:11.582Z,1013.2
2019-02-20T07:51:52.203Z,1013.23
2019-02-20T07:52:33.566Z,1013.25
2019-02-20T07:53:14.580Z,1013.26
2019-02-20T07:53:55.067Z,1013.29
2019-02-20T07:54:38.562Z,1013.31
2019-02-20T07:55:18.890Z,1013.36
2019-02-20T07:55:59.340Z,1013.33
2019-02-20T07:56:40.135Z,1013.34
2019-02-20T07:57:21.657Z,1013.35
2019-02-20T07:58:01.205Z,1013.38
2019-02-20T07:58:41.581Z,1013.34
2019-02-20T07:59:22.182Z,1013.36
2019-02-20T08:00:02.530Z,1013.41
2019-02-20T08:00:42.973Z,1013.43
2019-02-20T08:01:23.431Z,1013.46
2019-02-20T08:02:03.820Z,1013.37
2019-02-20T08:02:44.231Z,1013.43
2019-02-20T08:03:25.588Z,1013.43
2019-02-20T08:04:07.593Z,1013.43
2019-02-20T08:04:48.019Z,1013.43
2019-02-20T08:05:29.218Z,1013.46
2019-02-20T08:06:09.715Z,1013.45
2019-02-20T08:06:50.223Z,1013.5
2019-02-20T08:07:30.708Z,1013.48
2019-02-20T08:08:11.188Z,1013.47
2019-02-20T08:08:53.086Z,1013.48
2019-02-20T08:09:33.535Z,1013.5
2019-02-20T08:10:13.817Z,1013.47
2019-02-20T08:12:28.593Z,1013.49
2019-02-20T08:13:11.185Z,1013.51
2019-02-20T08:13:51.629Z,1013.57
2019-02-20T08:15:57.006Z,1013.5
2019-02-20T08:16:37.067Z,1013.53
2019-02-20T08:17:17.550Z,1013.54
2019-02-20T08:17:58.134Z,1013.55
2019-02-20T08:18:38.564Z,1013.57
2019-02-20T08:19:19.020Z,1013.58
2019-02-20T08:20:01.244Z,1013.54
2019-02-20T08:20:41.624Z,1013.61
2019-02-20T08:21:22.044Z,1013.59
2019-02-20T08:22:02.473Z,1013.63
2019-02-20T08:22:42.916Z,1013.61
2019-02-20T08:23:24.555Z,1013.59
2019-02-20T08:24:04.738Z,1013.64
2019-02-20T08:24:45.166Z,1013.63
2019-02-20T08:25:25.849Z,1013.64
2019-02-20T08:26:06.287Z,1013.63
2019-02-20T08:26:46.728Z,1013.64
2019-02-20T08:27:27.189Z,1013.66
2019-02-20T08:28:07.706Z,1013.65
2019-02-20T08:28:48.108Z,1013.67
2019-02-20T08:29:28.549Z,1013.65
2019-02-20T08:30:08.956Z,1013.68
2019-02-20T08:30:49.361Z,1013.68
2019-02-20T08:31:29.796Z,1013.7
2019-02-20T08:32:10.208Z,1013.66
2019-02-20T08:32:50.650Z,1013.71
2019-02-20T08:33:31.162Z,1013.68
2019-02-20T08:34:11.509Z,1013.68
2019-02-20T08:34:51.947Z,1013.72
2019-02-20T08:35:32.385Z,1013.73
2019-02-20T08:36:12.772Z,1013.72
2019-02-20T08:36:53.224Z,1013.69
2019-02-20T08:37:33.660Z,1013.72
2019-02-20T08:38:14.138Z,1013.74
2019-02-20T08:38:54.592Z,1013.7
2019-02-20T08:39:35.027Z,1013.73
2019-02-20T08:40:15.673Z,1013.78
2019-02-20T08:40:56.164Z,1013.75
2019-02-20T08:41:36.615Z,1013.79
2019-02-20T08:42:18.657Z,1013.79
2019-02-20T08:46:50.761Z,1013.83
2019-02-20T08:47:31.057Z,1013.84
2019-02-20T08:48:11.451Z,1013.87
2019-02-20T08:54:51.329Z,1013.75
2019-02-20T08:55:32.484Z,1013.78
2019-02-20T08:56:12.472Z,1013.74
2019-02-20T08:56:52.985Z,1013.75
2019-02-20T08:57:33.357Z,1013.71
2019-02-20T08:58:13.989Z,1013.78
2019-02-20T08:58:54.377Z,1013.77
2019-02-20T08:59:34.792Z,1013.79
2019-02-20T09:00:15.225Z,1013.78
2019-02-20T09:00:55.751Z,1013.81
2019-02-20T09:01:36.159Z,1013.84
2019-02-20T09:02:16.538Z,1013.8
2019-02-20T09:02:57.089Z,1013.81
2019-02-20T09:03:37.608Z,1013.84
2019-02-20T09:04:18.022Z,1013.8
2019-02-20T09:04:58.500Z,1013.84
2019-02-20T09:05:38.915Z,1013.84
2019-02-20T09:06:20.262Z,1013.86
2019-02-20T09:07:00.014Z,1013.86
2019-02-20T09:07:40.379Z,1013.86
2019-02-20T09:08:20.879Z,1013.88
2019-02-20T09:09:01.294Z,1013.88
2019-02-20T09:09:42.054Z,1013.86
2019-02-20T09:10:22.510Z,1013.88
2019-02-20T09:11:02.964Z,1013.89
2019-02-20T09:11:45.497Z,1013.89
2019-02-20T09:15:47.180Z,1013.86
2019-02-20T09:16:29.042Z,1013.9
2019-02-20T09:17:09.491Z,1013.92
2019-02-20T09:17:50.069Z,1013.92
2019-02-20T09:18:32.153Z,1013.93
2019-02-20T09:19:12.598Z,1013.9
2019-02-20T09:19:53.057Z,1013.89
2019-02-20T09:20:33.541Z,1013.9
2019-02-20T09:21:14.038Z,1013.9
2019-02-20T09:22:00.043Z,1013.86
2019-02-20T09:22:40.532Z,1013.85
2019-02-20T09:23:21.869Z,1013.89
2019-02-20T09:24:07.017Z,1013.89
2019-02-20T09:24:47.446Z,1013.88
2019-02-20T09:25:27.845Z,1013.92
2019-02-20T09:26:08.354Z,1013.91
2019-02-20T09:26:48.734Z,1013.9
2019-02-20T09:27:29.348Z,1013.95
2019-02-20T09:28:10.230Z,1013.94
2019-02-20T09:28:50.877Z,1013.96
2019-02-20T09:29:32.518Z,1013.98
2019-02-20T09:30:12.424Z,1013.98
2019-02-20T09:30:53.056Z,1013.94
2019-02-20T09:31:34.514Z,1013.92
2019-02-20T09:32:14.138Z,1013.91
2019-02-20T09:32:54.564Z,1013.92
2019-02-20T09:33:34.946Z,1013.9
2019-02-20T09:34:15.341Z,1013.9
2019-02-20T09:34:59.529Z,1013.91
2019-02-20T09:35:41.789Z,1013.91
2019-02-20T09:36:22.219Z,1013.89
2019-02-20T09:37:02.618Z,1013.9
2019-02-20T09:37:42.945Z,1013.89
2019-02-20T09:38:23.467Z,1013.89
2019-02-20T09:39:03.926Z,1013.9
2019-02-20T09:39:44.344Z,1013.9
2019-02-20T09:40:24.745Z,1013.94
2019-02-20T09:41:05.156Z,1013.92
2019-02-20T09:41:45.768Z,1013.93
2019-02-20T09:42:26.073Z,1013.95
2019-02-20T09:43:06.463Z,1013.94
2019-02-20T09:43:46.966Z,1013.91
2019-02-20T09:44:27.439Z,1013.92
2019-02-20T09:45:08.476Z,1013.94
2019-02-20T09:45:48.339Z,1013.94
2019-02-20T09:46:28.867Z,1013.94
2019-02-20T09:47:09.201Z,1013.94
2019-02-20T09:47:49.668Z,1013.92
2019-02-20T09:48:30.108Z,1013.91
2019-02-20T09:49:10.500Z,1013.93
2019-02-20T09:49:52.540Z,1013.93
2019-02-20T09:50:33.006Z,1013.92
2019-02-20T09:51:13.535Z,1013.94
2019-02-20T09:51:53.901Z,1013.93
2019-02-20T09:55:28.494Z,1014.01
2019-02-20T09:56:08.494Z,1014.08
2019-02-20T09:56:48.935Z,1013.99
2019-02-20T09:57:29.324Z,1014.01
2019-02-20T09:58:09.723Z,1014.03
2019-02-20T09:58:50.222Z,1014.03
2019-02-20T09:59:30.541Z,1014.04
2019-02-20T10:00:11.067Z,1014.03
2019-02-20T10:00:51.468Z,1014.04
2019-02-20T10:01:32.217Z,1014.06
2019-02-20T10:02:12.585Z,1014.11
2019-02-20T10:02:52.919Z,1014.09
2019-02-20T10:03:33.406Z,1014.1
2019-02-20T10:04:13.766Z,1014.09
2019-02-20T10:04:54.166Z,1014.09
2019-02-20T10:05:34.546Z,1014.09
2019-02-20T10:06:14.982Z,1014.13
2019-02-20T10:06:55.523Z,1014.14
2019-02-20T10:08:56.485Z,1014.11
2019-02-20T10:09:41.143Z,1014.09
2019-02-20T10:10:21.660Z,1014.07
2019-02-20T10:11:02.056Z,1014.07
2019-02-20T10:11:42.479Z,1014.14
2019-02-20T10:12:22.951Z,1014.13
2019-02-20T10:13:03.394Z,1014.15
2019-02-20T10:13:43.739Z,1014.1
2019-02-20T10:14:26.218Z,1014.13
2019-02-20T10:15:07.875Z,1014.13
2019-02-20T10:15:48.413Z,1014.16
2019-02-20T10:16:28.848Z,1014.15
2019-02-20T10:17:09.202Z,1014.23
2019-02-20T10:17:49.604Z,1014.18
2019-02-20T10:18:30.150Z,1014.16
2019-02-20T10:19:13.448Z,1014.19
2019-02-20T10:19:53.994Z,1014.2